sensor_id;sensor_type;location;lat;lon;timestamp;P1;durP1;ratioP1;P2;durP2;ratioP2
41693;SDS011;27377;50.666;9.150;2022-11-15T00:01:22;7.85;;;3.90;;
41693;SDS011;27377;50.666;9.150;2022-11-15T00:03:50;7.63;;;4.13;;
41693;SDS011;27377;50.666;9.150;2022-11-15T00:06:16;7.05;;;3.90;;
41693;SDS011;27377;50.666;9.150;2022-11-15T00:08:42;8.00;;;4.28;;
41693;SDS011;27377;50.666;9.150;2022-11-15T00:11:08;8.98;;;3.88;;
41693;SDS011;27377;50.666;9.150;2022-11-15T00:13:36;7.57;;;4.00;;
41693;SDS011;27377;50.666;9.150;2022-11-15T00:16:02;8.88;;;4.25;;
41693;SDS011;27377;50.666;9.150;2022-11-15T00:18:28;9.23;;;4.40;;
41693;SDS011;27377;50.666;9.150;2022-11-15T00:20:54;9.50;;;4.22;;
41693;SDS011;27377;50.666;9.150;2022-11-15T00:23:28;6.55;;;3.83;;
41693;SDS011;27377;50.666;9.150;2022-11-15T00:25:57;7.00;;;4.13;;
41693;SDS011;27377;50.666;9.150;2022-11-15T00:28:23;8.57;;;4.20;;
41693;SDS011;27377;50.666;9.150;2022-11-15T00:30:49;7.03;;;4.10;;
41693;SDS011;27377;50.666;9.150;2022-11-15T00:33:15;6.87;;;3.80;;
41693;SDS011;27377;50.666;9.150;2022-11-15T00:35:40;9.37;;;4.00;;
41693;SDS011;27377;50.666;9.150;2022-11-15T00:38:06;7.77;;;4.00;;
41693;SDS011;27377;50.666;9.150;2022-11-15T00:40:31;6.53;;;3.93;;
41693;SDS011;27377;50.666;9.150;2022-11-15T00:43:00;6.50;;;3.88;;
41693;SDS011;27377;50.666;9.150;2022-11-15T00:45:25;7.97;;;4.37;;
41693;SDS011;27377;50.666;9.150;2022-11-15T00:47:51;7.80;;;4.03;;
41693;SDS011;27377;50.666;9.150;2022-11-15T00:50:17;7.33;;;3.90;;
41693;SDS011;27377;50.666;9.150;2022-11-15T00:52:43;7.07;;;3.67;;
41693;SDS011;27377;50.666;9.150;2022-11-15T00:55:12;6.97;;;4.00;;
41693;SDS011;27377;50.666;9.150;2022-11-15T00:57:42;6.53;;;3.85;;
41693;SDS011;27377;50.666;9.150;2022-11-15T01:00:08;6.70;;;3.75;;
41693;SDS011;27377;50.666;9.150;2022-11-15T01:02:35;6.67;;;3.60;;
41693;SDS011;27377;50.666;9.150;2022-11-15T01:05:00;7.17;;;3.80;;
41693;SDS011;27377;50.666;9.150;2022-11-15T01:07:26;6.97;;;3.60;;
41693;SDS011;27377;50.666;9.150;2022-11-15T01:09:51;7.97;;;3.97;;
41693;SDS011;27377;50.666;9.150;2022-11-15T01:12:17;6.57;;;3.80;;
41693;SDS011;27377;50.666;9.150;2022-11-15T01:14:43;7.50;;;3.70;;
41693;SDS011;27377;50.666;9.150;2022-11-15T01:17:08;6.20;;;3.43;;
41693;SDS011;27377;50.666;9.150;2022-11-15T01:19:34;6.38;;;3.65;;
41693;SDS011;27377;50.666;9.150;2022-11-15T01:21:59;6.60;;;3.65;;
41693;SDS011;27377;50.666;9.150;2022-11-15T01:24:26;7.40;;;3.63;;
41693;SDS011;27377;50.666;9.150;2022-11-15T01:26:52;5.97;;;3.60;;
41693;SDS011;27377;50.666;9.150;2022-11-15T01:29:17;6.63;;;3.73;;
41693;SDS011;27377;50.666;9.150;2022-11-15T01:31:43;7.00;;;3.57;;
41693;SDS011;27377;50.666;9.150;2022-11-15T01:34:08;5.30;;;3.70;;
41693;SDS011;27377;50.666;9.150;2022-11-15T01:36:34;6.00;;;3.60;;
41693;SDS011;27377;50.666;9.150;2022-11-15T01:39:00;6.33;;;3.53;;
41693;SDS011;27377;50.666;9.150;2022-11-15T01:41:27;7.70;;;3.90;;
41693;SDS011;27377;50.666;9.150;2022-11-15T01:44:28;7.03;;;3.90;;
41693;SDS011;27377;50.666;9.150;2022-11-15T01:47:02;11.82;;;4.25;;
41693;SDS011;27377;50.666;9.150;2022-11-15T01:49:32;5.97;;;3.67;;
41693;SDS011;27377;50.666;9.150;2022-11-15T01:52:00;6.53;;;3.97;;
41693;SDS011;27377;50.666;9.150;2022-11-15T01:54:28;6.97;;;4.00;;
41693;SDS011;27377;50.666;9.150;2022-11-15T01:57:05;7.97;;;3.92;;
41693;SDS011;27377;50.666;9.150;2022-11-15T01:59:34;7.22;;;4.20;;
41693;SDS011;27377;50.666;9.150;2022-11-15T02:02:01;7.90;;;3.72;;
41693;SDS011;27377;50.666;9.150;2022-11-15T02:04:28;7.10;;;3.90;;
41693;SDS011;27377;50.666;9.150;2022-11-15T02:06:56;8.25;;;3.88;;
41693;SDS011;27377;50.666;9.150;2022-11-15T02:09:23;7.28;;;3.92;;
41693;SDS011;27377;50.666;9.150;2022-11-15T02:11:48;9.15;;;4.00;;
41693;SDS011;27377;50.666;9.150;2022-11-15T02:14:17;6.60;;;3.88;;
41693;SDS011;27377;50.666;9.150;2022-11-15T02:22:14;7.97;;;4.10;;
41693;SDS011;27377;50.666;9.150;2022-11-15T02:30:25;7.07;;;4.20;;
41693;SDS011;27377;50.666;9.150;2022-11-15T02:33:17;6.88;;;3.83;;
41693;SDS011;27377;50.666;9.150;2022-11-15T02:36:09;6.22;;;3.72;;
41693;SDS011;27377;50.666;9.150;2022-11-15T02:41:30;6.53;;;3.90;;
41693;SDS011;27377;50.666;9.150;2022-11-15T02:44:02;6.88;;;3.72;;
41693;SDS011;27377;50.666;9.150;2022-11-15T02:49:23;7.63;;;4.07;;
41693;SDS011;27377;50.666;9.150;2022-11-15T02:51:51;8.38;;;4.13;;
41693;SDS011;27377;50.666;9.150;2022-11-15T02:54:20;8.30;;;4.25;;
41693;SDS011;27377;50.666;9.150;2022-11-15T02:56:47;8.18;;;4.00;;
41693;SDS011;27377;50.666;9.150;2022-11-15T03:04:51;7.53;;;3.73;;
41693;SDS011;27377;50.666;9.150;2022-11-15T03:13:02;7.35;;;4.05;;
41693;SDS011;27377;50.666;9.150;2022-11-15T03:15:41;6.80;;;3.63;;
41693;SDS011;27377;50.666;9.150;2022-11-15T03:18:21;7.18;;;3.60;;
41693;SDS011;27377;50.666;9.150;2022-11-15T03:20:53;9.05;;;3.80;;
41693;SDS011;27377;50.666;9.150;2022-11-15T03:23:20;5.88;;;3.58;;
41693;SDS011;27377;50.666;9.150;2022-11-15T03:25:48;6.67;;;3.73;;
41693;SDS011;27377;50.666;9.150;2022-11-15T03:28:16;7.10;;;3.60;;
41693;SDS011;27377;50.666;9.150;2022-11-15T03:30:48;7.82;;;3.63;;
41693;SDS011;27377;50.666;9.150;2022-11-15T03:33:17;7.50;;;3.60;;
41693;SDS011;27377;50.666;9.150;2022-11-15T03:35:45;7.32;;;3.40;;
41693;SDS011;27377;50.666;9.150;2022-11-15T03:38:25;7.15;;;3.50;;
41693;SDS011;27377;50.666;9.150;2022-11-15T03:40:58;8.33;;;3.50;;
41693;SDS011;27377;50.666;9.150;2022-11-15T03:43:39;6.70;;;3.78;;
41693;SDS011;27377;50.666;9.150;2022-11-15T03:46:07;6.47;;;3.10;;
41693;SDS011;27377;50.666;9.150;2022-11-15T03:48:59;6.05;;;3.40;;
41693;SDS011;27377;50.666;9.150;2022-11-15T03:51:34;5.33;;;3.10;;
41693;SDS011;27377;50.666;9.150;2022-11-15T03:54:02;7.53;;;3.55;;
41693;SDS011;27377;50.666;9.150;2022-11-15T03:56:28;6.35;;;3.92;;
41693;SDS011;27377;50.666;9.150;2022-11-15T03:58:54;6.30;;;3.50;;
41693;SDS011;27377;50.666;9.150;2022-11-15T04:01:20;7.57;;;3.70;;
41693;SDS011;27377;50.666;9.150;2022-11-15T04:03:45;8.38;;;3.90;;
41693;SDS011;27377;50.666;9.150;2022-11-15T04:06:11;6.30;;;3.70;;
41693;SDS011;27377;50.666;9.150;2022-11-15T04:08:36;6.22;;;3.70;;
41693;SDS011;27377;50.666;9.150;2022-11-15T04:11:04;7.00;;;3.75;;
41693;SDS011;27377;50.666;9.150;2022-11-15T04:13:30;6.43;;;3.30;;
41693;SDS011;27377;50.666;9.150;2022-11-15T04:15:56;5.10;;;3.43;;
41693;SDS011;27377;50.666;9.150;2022-11-15T04:18:21;6.90;;;3.67;;
41693;SDS011;27377;50.666;9.150;2022-11-15T04:20:47;8.18;;;3.70;;
41693;SDS011;27377;50.666;9.150;2022-11-15T04:23:31;6.75;;;3.55;;
41693;SDS011;27377;50.666;9.150;2022-11-15T04:26:16;9.25;;;4.07;;
41693;SDS011;27377;50.666;9.150;2022-11-15T04:28:44;8.13;;;3.80;;
41693;SDS011;27377;50.666;9.150;2022-11-15T04:31:29;8.30;;;3.92;;
41693;SDS011;27377;50.666;9.150;2022-11-15T04:33:55;7.25;;;3.90;;
41693;SDS011;27377;50.666;9.150;2022-11-15T04:36:21;6.40;;;4.27;;
41693;SDS011;27377;50.666;9.150;2022-11-15T04:39:08;7.43;;;4.10;;
41693;SDS011;27377;50.666;9.150;2022-11-15T04:41:37;7.47;;;4.30;;
41693;SDS011;27377;50.666;9.150;2022-11-15T04:44:02;6.60;;;3.90;;
41693;SDS011;27377;50.666;9.150;2022-11-15T04:46:28;7.23;;;3.90;;
41693;SDS011;27377;50.666;9.150;2022-11-15T04:48:53;5.67;;;3.40;;
41693;SDS011;27377;50.666;9.150;2022-11-15T04:51:20;5.57;;;3.80;;
41693;SDS011;27377;50.666;9.150;2022-11-15T04:53:46;6.27;;;3.67;;
41693;SDS011;27377;50.666;9.150;2022-11-15T04:56:11;6.37;;;3.60;;
41693;SDS011;27377;50.666;9.150;2022-11-15T04:58:37;6.50;;;2.87;;
41693;SDS011;27377;50.666;9.150;2022-11-15T05:01:06;5.68;;;3.10;;
41693;SDS011;27377;50.666;9.150;2022-11-15T05:03:33;6.30;;;3.53;;
41693;SDS011;27377;50.666;9.150;2022-11-15T05:06:17;6.40;;;3.58;;
41693;SDS011;27377;50.666;9.150;2022-11-15T05:08:43;6.57;;;3.58;;
41693;SDS011;27377;50.666;9.150;2022-11-15T05:11:08;6.60;;;3.60;;
41693;SDS011;27377;50.666;9.150;2022-11-15T05:13:37;6.15;;;3.55;;
41693;SDS011;27377;50.666;9.150;2022-11-15T05:16:02;8.80;;;3.60;;
41693;SDS011;27377;50.666;9.150;2022-11-15T05:18:28;5.68;;;3.10;;
41693;SDS011;27377;50.666;9.150;2022-11-15T05:20:54;6.83;;;3.33;;
41693;SDS011;27377;50.666;9.150;2022-11-15T05:23:19;7.15;;;3.75;;
41693;SDS011;27377;50.666;9.150;2022-11-15T05:25:48;6.88;;;4.15;;
41693;SDS011;27377;50.666;9.150;2022-11-15T05:28:14;6.73;;;4.00;;
41693;SDS011;27377;50.666;9.150;2022-11-15T05:30:39;7.63;;;4.07;;
41693;SDS011;27377;50.666;9.150;2022-11-15T05:33:07;6.73;;;4.00;;
41693;SDS011;27377;50.666;9.150;2022-11-15T05:35:43;8.10;;;4.40;;
41693;SDS011;27377;50.666;9.150;2022-11-15T05:38:13;7.30;;;3.93;;
41693;SDS011;27377;50.666;9.150;2022-11-15T05:40:39;7.07;;;3.80;;
41693;SDS011;27377;50.666;9.150;2022-11-15T05:43:08;7.43;;;4.28;;
41693;SDS011;27377;50.666;9.150;2022-11-15T05:45:35;8.93;;;4.28;;
41693;SDS011;27377;50.666;9.150;2022-11-15T05:48:05;8.18;;;4.40;;
41693;SDS011;27377;50.666;9.150;2022-11-15T05:50:34;8.60;;;4.75;;
41693;SDS011;27377;50.666;9.150;2022-11-15T05:53:03;6.57;;;4.38;;
41693;SDS011;27377;50.666;9.150;2022-11-15T05:55:29;6.37;;;4.20;;
41693;SDS011;27377;50.666;9.150;2022-11-15T05:57:56;8.60;;;4.82;;
41693;SDS011;27377;50.666;9.150;2022-11-15T06:00:24;7.38;;;4.43;;
41693;SDS011;27377;50.666;9.150;2022-11-15T06:02:50;7.27;;;4.50;;
41693;SDS011;27377;50.666;9.150;2022-11-15T06:05:15;7.60;;;4.40;;
41693;SDS011;27377;50.666;9.150;2022-11-15T06:07:41;6.90;;;3.90;;
41693;SDS011;27377;50.666;9.150;2022-11-15T06:10:07;6.70;;;3.63;;
41693;SDS011;27377;50.666;9.150;2022-11-15T06:12:35;6.47;;;3.70;;
41693;SDS011;27377;50.666;9.150;2022-11-15T06:15:01;5.83;;;3.40;;
41693;SDS011;27377;50.666;9.150;2022-11-15T06:17:26;5.67;;;3.40;;
41693;SDS011;27377;50.666;9.150;2022-11-15T06:19:52;5.60;;;3.17;;
41693;SDS011;27377;50.666;9.150;2022-11-15T06:22:20;7.38;;;3.28;;
41693;SDS011;27377;50.666;9.150;2022-11-15T06:24:46;7.93;;;3.03;;
41693;SDS011;27377;50.666;9.150;2022-11-15T06:27:11;6.78;;;3.05;;
41693;SDS011;27377;50.666;9.150;2022-11-15T06:29:40;6.70;;;3.43;;
41693;SDS011;27377;50.666;9.150;2022-11-15T06:32:06;5.95;;;3.28;;
41693;SDS011;27377;50.666;9.150;2022-11-15T06:34:31;8.93;;;3.33;;
41693;SDS011;27377;50.666;9.150;2022-11-15T06:36:57;6.13;;;2.93;;
41693;SDS011;27377;50.666;9.150;2022-11-15T06:39:23;6.90;;;3.20;;
41693;SDS011;27377;50.666;9.150;2022-11-15T06:41:48;5.40;;;3.30;;
41693;SDS011;27377;50.666;9.150;2022-11-15T06:44:14;5.27;;;3.17;;
41693;SDS011;27377;50.666;9.150;2022-11-15T06:46:39;5.43;;;3.30;;
41693;SDS011;27377;50.666;9.150;2022-11-15T06:49:08;7.00;;;3.13;;
41693;SDS011;27377;50.666;9.150;2022-11-15T06:51:33;6.77;;;3.30;;
41693;SDS011;27377;50.666;9.150;2022-11-15T06:53:59;5.20;;;3.40;;
41693;SDS011;27377;50.666;9.150;2022-11-15T06:56:27;5.80;;;3.30;;
41693;SDS011;27377;50.666;9.150;2022-11-15T06:58:53;6.88;;;3.38;;
41693;SDS011;27377;50.666;9.150;2022-11-15T07:01:20;6.72;;;3.30;;
41693;SDS011;27377;50.666;9.150;2022-11-15T07:03:45;6.63;;;3.40;;
41693;SDS011;27377;50.666;9.150;2022-11-15T07:06:14;6.05;;;3.30;;
41693;SDS011;27377;50.666;9.150;2022-11-15T07:08:39;6.57;;;3.35;;
41693;SDS011;27377;50.666;9.150;2022-11-15T07:11:07;6.35;;;3.35;;
41693;SDS011;27377;50.666;9.150;2022-11-15T07:13:33;5.50;;;3.30;;
41693;SDS011;27377;50.666;9.150;2022-11-15T07:16:04;6.47;;;3.37;;
41693;SDS011;27377;50.666;9.150;2022-11-15T07:18:38;5.88;;;3.60;;
41693;SDS011;27377;50.666;9.150;2022-11-15T07:21:05;5.22;;;3.15;;
41693;SDS011;27377;50.666;9.150;2022-11-15T07:23:35;5.82;;;3.40;;
41693;SDS011;27377;50.666;9.150;2022-11-15T07:26:01;6.03;;;3.45;;
41693;SDS011;27377;50.666;9.150;2022-11-15T07:28:29;7.15;;;3.75;;
41693;SDS011;27377;50.666;9.150;2022-11-15T07:30:55;7.35;;;4.03;;
41693;SDS011;27377;50.666;9.150;2022-11-15T07:33:21;6.47;;;3.83;;
41693;SDS011;27377;50.666;9.150;2022-11-15T07:35:47;7.47;;;4.35;;
41693;SDS011;27377;50.666;9.150;2022-11-15T07:38:16;8.38;;;4.97;;
41693;SDS011;27377;50.666;9.150;2022-11-15T07:40:44;8.25;;;5.20;;
41693;SDS011;27377;50.666;9.150;2022-11-15T07:43:13;9.93;;;5.53;;
41693;SDS011;27377;50.666;9.150;2022-11-15T07:45:42;8.80;;;6.00;;
41693;SDS011;27377;50.666;9.150;2022-11-15T07:48:09;11.30;;;6.28;;
41693;SDS011;27377;50.666;9.150;2022-11-15T07:50:35;11.17;;;6.13;;
41693;SDS011;27377;50.666;9.150;2022-11-15T07:53:00;8.60;;;5.50;;
41693;SDS011;27377;50.666;9.150;2022-11-15T07:55:26;8.50;;;5.00;;
41693;SDS011;27377;50.666;9.150;2022-11-15T07:58:02;10.10;;;4.63;;
41693;SDS011;27377;50.666;9.150;2022-11-15T08:00:35;7.90;;;4.13;;
41693;SDS011;27377;50.666;9.150;2022-11-15T08:03:05;7.80;;;4.20;;
41693;SDS011;27377;50.666;9.150;2022-11-15T08:05:39;7.38;;;4.22;;
41693;SDS011;27377;50.666;9.150;2022-11-15T08:08:06;6.75;;;3.92;;
41693;SDS011;27377;50.666;9.150;2022-11-15T08:10:32;6.97;;;3.97;;
41693;SDS011;27377;50.666;9.150;2022-11-15T08:13:03;7.65;;;3.88;;
41693;SDS011;27377;50.666;9.150;2022-11-15T08:15:31;6.28;;;3.63;;
41693;SDS011;27377;50.666;9.150;2022-11-15T08:17:58;6.75;;;3.53;;
41693;SDS011;27377;50.666;9.150;2022-11-15T08:20:25;7.45;;;3.22;;
41693;SDS011;27377;50.666;9.150;2022-11-15T08:22:54;5.88;;;3.30;;
41693;SDS011;27377;50.666;9.150;2022-11-15T08:25:24;6.85;;;3.72;;
41693;SDS011;27377;50.666;9.150;2022-11-15T08:27:53;6.25;;;3.25;;
41693;SDS011;27377;50.666;9.150;2022-11-15T08:30:20;6.70;;;3.23;;
41693;SDS011;27377;50.666;9.150;2022-11-15T08:32:46;5.78;;;3.80;;
41693;SDS011;27377;50.666;9.150;2022-11-15T08:35:13;7.47;;;3.80;;
41693;SDS011;27377;50.666;9.150;2022-11-15T08:37:39;7.65;;;4.10;;
41693;SDS011;27377;50.666;9.150;2022-11-15T08:40:04;7.67;;;3.77;;
41693;SDS011;27377;50.666;9.150;2022-11-15T08:42:31;7.50;;;3.90;;
41693;SDS011;27377;50.666;9.150;2022-11-15T08:44:57;5.60;;;3.40;;
41693;SDS011;27377;50.666;9.150;2022-11-15T08:47:22;6.27;;;3.17;;
41693;SDS011;27377;50.666;9.150;2022-11-15T08:49:48;6.43;;;3.30;;
41693;SDS011;27377;50.666;9.150;2022-11-15T08:52:15;5.67;;;3.10;;
41693;SDS011;27377;50.666;9.150;2022-11-15T08:54:41;5.47;;;3.37;;
41693;SDS011;27377;50.666;9.150;2022-11-15T08:57:06;4.83;;;2.97;;
41693;SDS011;27377;50.666;9.150;2022-11-15T08:59:34;5.80;;;3.00;;
41693;SDS011;27377;50.666;9.150;2022-11-15T09:02:00;5.50;;;2.92;;
41693;SDS011;27377;50.666;9.150;2022-11-15T09:04:26;9.47;;;2.93;;
41693;SDS011;27377;50.666;9.150;2022-11-15T09:06:52;5.28;;;2.88;;
41693;SDS011;27377;50.666;9.150;2022-11-15T09:09:17;5.55;;;2.95;;
41693;SDS011;27377;50.666;9.150;2022-11-15T09:11:43;4.95;;;2.90;;
41693;SDS011;27377;50.666;9.150;2022-11-15T09:14:10;5.15;;;2.90;;
41693;SDS011;27377;50.666;9.150;2022-11-15T09:16:37;5.35;;;3.08;;
41693;SDS011;27377;50.666;9.150;2022-11-15T09:19:03;7.65;;;3.33;;
41693;SDS011;27377;50.666;9.150;2022-11-15T09:21:29;6.13;;;3.20;;
41693;SDS011;27377;50.666;9.150;2022-11-15T09:23:55;6.63;;;3.22;;
41693;SDS011;27377;50.666;9.150;2022-11-15T09:26:21;6.40;;;2.93;;
41693;SDS011;27377;50.666;9.150;2022-11-15T09:28:46;5.40;;;2.90;;
41693;SDS011;27377;50.666;9.150;2022-11-15T09:31:12;5.43;;;2.80;;
41693;SDS011;27377;50.666;9.150;2022-11-15T09:33:38;4.70;;;2.60;;
41693;SDS011;27377;50.666;9.150;2022-11-15T09:36:05;4.30;;;2.33;;
41693;SDS011;27377;50.666;9.150;2022-11-15T09:38:32;4.50;;;2.60;;
41693;SDS011;27377;50.666;9.150;2022-11-15T09:49:09;5.93;;;2.30;;
41693;SDS011;27377;50.666;9.150;2022-11-15T09:51:40;4.32;;;2.40;;
41693;SDS011;27377;50.666;9.150;2022-11-15T09:54:37;5.43;;;2.50;;
41693;SDS011;27377;50.666;9.150;2022-11-15T09:57:14;4.43;;;2.60;;
41693;SDS011;27377;50.666;9.150;2022-11-15T10:05:27;4.43;;;2.45;;
41693;SDS011;27377;50.666;9.150;2022-11-15T10:10:46;4.63;;;2.58;;
41693;SDS011;27377;50.666;9.150;2022-11-15T10:13:28;5.37;;;2.47;;
41693;SDS011;27377;50.666;9.150;2022-11-15T10:16:00;5.18;;;2.63;;
41693;SDS011;27377;50.666;9.150;2022-11-15T10:18:41;4.93;;;2.58;;
41693;SDS011;27377;50.666;9.150;2022-11-15T10:21:19;3.83;;;2.60;;
41693;SDS011;27377;50.666;9.150;2022-11-15T10:23:50;4.32;;;2.63;;
41693;SDS011;27377;50.666;9.150;2022-11-15T10:26:16;5.32;;;2.85;;
41693;SDS011;27377;50.666;9.150;2022-11-15T10:28:42;10.00;;;2.60;;
41693;SDS011;27377;50.666;9.150;2022-11-15T10:31:21;9.23;;;3.10;;
41693;SDS011;27377;50.666;9.150;2022-11-15T10:33:58;4.25;;;2.60;;
41693;SDS011;27377;50.666;9.150;2022-11-15T10:36:37;5.00;;;2.47;;
41693;SDS011;27377;50.666;9.150;2022-11-15T10:39:03;5.85;;;2.60;;
41693;SDS011;27377;50.666;9.150;2022-11-15T10:47:03;7.00;;;3.20;;
41693;SDS011;27377;50.666;9.150;2022-11-15T10:49:31;6.22;;;3.03;;
41693;SDS011;27377;50.666;9.150;2022-11-15T10:54:39;11.30;;;5.03;;
41693;SDS011;27377;50.666;9.150;2022-11-15T10:57:18;9.25;;;3.80;;
41693;SDS011;27377;50.666;9.150;2022-11-15T10:59:48;10.65;;;5.00;;
41693;SDS011;27377;50.666;9.150;2022-11-15T11:02:38;8.20;;;4.60;;
41693;SDS011;27377;50.666;9.150;2022-11-15T11:05:30;10.05;;;5.15;;
41693;SDS011;27377;50.666;9.150;2022-11-15T11:10:29;7.15;;;4.10;;
41693;SDS011;27377;50.666;9.150;2022-11-15T11:13:05;6.68;;;4.00;;
41693;SDS011;27377;50.666;9.150;2022-11-15T11:15:47;7.35;;;3.92;;
41693;SDS011;27377;50.666;9.150;2022-11-15T11:24:18;6.30;;;3.53;;
41693;SDS011;27377;50.666;9.150;2022-11-15T11:27:47;7.20;;;3.20;;
41693;SDS011;27377;50.666;9.150;2022-11-15T11:32:37;6.88;;;3.42;;
41693;SDS011;27377;50.666;9.150;2022-11-15T11:38:06;5.57;;;3.23;;
41693;SDS011;27377;50.666;9.150;2022-11-15T11:40:59;6.53;;;3.17;;
41693;SDS011;27377;50.666;9.150;2022-11-15T11:43:34;6.07;;;3.00;;
41693;SDS011;27377;50.666;9.150;2022-11-15T11:48:53;6.40;;;2.80;;
41693;SDS011;27377;50.666;9.150;2022-11-15T11:51:43;5.55;;;2.70;;
41693;SDS011;27377;50.666;9.150;2022-11-15T11:57:17;7.22;;;2.88;;
41693;SDS011;27377;50.666;9.150;2022-11-15T12:00:09;6.55;;;3.17;;
41693;SDS011;27377;50.666;9.150;2022-11-15T12:02:41;6.83;;;3.63;;
41693;SDS011;27377;50.666;9.150;2022-11-15T12:05:32;8.87;;;4.03;;
41693;SDS011;27377;50.666;9.150;2022-11-15T12:11:10;6.32;;;3.60;;
41693;SDS011;27377;50.666;9.150;2022-11-15T12:13:37;6.40;;;3.20;;
41693;SDS011;27377;50.666;9.150;2022-11-15T12:16:17;6.40;;;3.00;;
41693;SDS011;27377;50.666;9.150;2022-11-15T12:18:44;4.88;;;2.72;;
41693;SDS011;27377;50.666;9.150;2022-11-15T12:21:16;5.00;;;2.72;;
41693;SDS011;27377;50.666;9.150;2022-11-15T12:23:53;5.43;;;2.70;;
41693;SDS011;27377;50.666;9.150;2022-11-15T12:26:26;4.33;;;2.40;;
41693;SDS011;27377;50.666;9.150;2022-11-15T12:29:01;4.82;;;2.50;;
41693;SDS011;27377;50.666;9.150;2022-11-15T12:34:00;4.87;;;2.30;;
41693;SDS011;27377;50.666;9.150;2022-11-15T12:36:40;5.10;;;2.45;;
41693;SDS011;27377;50.666;9.150;2022-11-15T12:39:08;6.13;;;2.47;;
41693;SDS011;27377;50.666;9.150;2022-11-15T12:41:36;4.97;;;2.50;;
41693;SDS011;27377;50.666;9.150;2022-11-15T12:44:13;4.00;;;2.10;;
41693;SDS011;27377;50.666;9.150;2022-11-15T12:47:13;4.88;;;2.30;;
41693;SDS011;27377;50.666;9.150;2022-11-15T12:49:48;4.53;;;2.25;;
41693;SDS011;27377;50.666;9.150;2022-11-15T12:52:15;5.05;;;2.35;;
41693;SDS011;27377;50.666;9.150;2022-11-15T13:04:52;4.20;;;2.30;;
41693;SDS011;27377;50.666;9.150;2022-11-15T13:12:53;5.60;;;2.35;;
41693;SDS011;27377;50.666;9.150;2022-11-15T13:15:37;6.03;;;2.20;;
41693;SDS011;27377;50.666;9.150;2022-11-15T13:18:39;4.65;;;2.10;;
41693;SDS011;27377;50.666;9.150;2022-11-15T13:21:18;5.22;;;2.20;;
41693;SDS011;27377;50.666;9.150;2022-11-15T13:24:15;4.03;;;2.10;;
41693;SDS011;27377;50.666;9.150;2022-11-15T13:26:41;3.78;;;1.83;;
41693;SDS011;27377;50.666;9.150;2022-11-15T13:29:17;7.90;;;2.10;;
41693;SDS011;27377;50.666;9.150;2022-11-15T13:31:44;4.07;;;1.85;;
41693;SDS011;27377;50.666;9.150;2022-11-15T13:34:16;4.10;;;2.00;;
41693;SDS011;27377;50.666;9.150;2022-11-15T13:36:42;4.18;;;1.95;;
41693;SDS011;27377;50.666;9.150;2022-11-15T13:39:14;3.17;;;1.50;;
41693;SDS011;27377;50.666;9.150;2022-11-15T13:41:56;3.22;;;1.70;;
41693;SDS011;27377;50.666;9.150;2022-11-15T13:44:24;3.22;;;1.60;;
41693;SDS011;27377;50.666;9.150;2022-11-15T13:47:01;4.22;;;1.50;;
41693;SDS011;27377;50.666;9.150;2022-11-15T13:49:40;3.42;;;1.60;;
41693;SDS011;27377;50.666;9.150;2022-11-15T13:52:07;3.20;;;1.67;;
41693;SDS011;27377;50.666;9.150;2022-11-15T13:54:55;3.35;;;1.60;;
41693;SDS011;27377;50.666;9.150;2022-11-15T14:00:00;3.10;;;1.50;;
41693;SDS011;27377;50.666;9.150;2022-11-15T14:02:37;3.58;;;1.50;;
41693;SDS011;27377;50.666;9.150;2022-11-15T14:05:14;3.75;;;1.60;;
41693;SDS011;27377;50.666;9.150;2022-11-15T14:07:56;2.83;;;1.40;;
41693;SDS011;27377;50.666;9.150;2022-11-15T14:12:54;4.70;;;2.25;;
41693;SDS011;27377;50.666;9.150;2022-11-15T14:17:59;5.45;;;3.00;;
41693;SDS011;27377;50.666;9.150;2022-11-15T14:20:26;4.70;;;2.28;;
41693;SDS011;27377;50.666;9.150;2022-11-15T14:25:54;3.80;;;2.20;;
41693;SDS011;27377;50.666;9.150;2022-11-15T14:30:50;4.23;;;2.13;;
41693;SDS011;27377;50.666;9.150;2022-11-15T14:33:38;5.30;;;2.00;;
41693;SDS011;27377;50.666;9.150;2022-11-15T14:36:14;2.80;;;1.80;;
41693;SDS011;27377;50.666;9.150;2022-11-15T14:38:44;8.10;;;2.73;;
41693;SDS011;27377;50.666;9.150;2022-11-15T14:41:21;6.70;;;3.43;;
41693;SDS011;27377;50.666;9.150;2022-11-15T14:43:49;8.07;;;4.13;;
41693;SDS011;27377;50.666;9.150;2022-11-15T14:46:16;15.95;;;7.53;;
41693;SDS011;27377;50.666;9.150;2022-11-15T14:48:42;23.08;;;9.85;;
41693;SDS011;27377;50.666;9.150;2022-11-15T14:51:15;19.63;;;8.68;;
41693;SDS011;27377;50.666;9.150;2022-11-15T14:53:42;16.80;;;8.33;;
41693;SDS011;27377;50.666;9.150;2022-11-15T14:56:08;19.20;;;8.30;;
41693;SDS011;27377;50.666;9.150;2022-11-15T14:58:34;17.80;;;8.48;;
41693;SDS011;27377;50.666;9.150;2022-11-15T15:01:02;17.90;;;8.40;;
41693;SDS011;27377;50.666;9.150;2022-11-15T15:03:34;16.55;;;7.90;;
41693;SDS011;27377;50.666;9.150;2022-11-15T15:05:59;15.53;;;7.47;;
41693;SDS011;27377;50.666;9.150;2022-11-15T15:08:25;12.87;;;6.77;;
41693;SDS011;27377;50.666;9.150;2022-11-15T15:10:51;12.47;;;5.60;;
41693;SDS011;27377;50.666;9.150;2022-11-15T15:13:17;7.00;;;3.30;;
41693;SDS011;27377;50.666;9.150;2022-11-15T15:15:45;6.53;;;2.55;;
41693;SDS011;27377;50.666;9.150;2022-11-15T15:18:11;6.37;;;2.60;;
41693;SDS011;27377;50.666;9.150;2022-11-15T15:20:37;3.80;;;1.97;;
41693;SDS011;27377;50.666;9.150;2022-11-15T15:23:04;4.10;;;2.03;;
41693;SDS011;27377;50.666;9.150;2022-11-15T15:25:32;4.20;;;1.77;;
41693;SDS011;27377;50.666;9.150;2022-11-15T15:27:59;3.22;;;1.80;;
41693;SDS011;27377;50.666;9.150;2022-11-15T15:30:27;4.00;;;1.90;;
41693;SDS011;27377;50.666;9.150;2022-11-15T15:32:54;4.60;;;1.90;;
41693;SDS011;27377;50.666;9.150;2022-11-15T15:35:20;3.33;;;1.67;;
41693;SDS011;27377;50.666;9.150;2022-11-15T15:37:46;3.83;;;1.67;;
41693;SDS011;27377;50.666;9.150;2022-11-15T15:40:17;3.30;;;1.60;;
41693;SDS011;27377;50.666;9.150;2022-11-15T15:42:45;3.50;;;1.40;;
41693;SDS011;27377;50.666;9.150;2022-11-15T15:45:11;4.63;;;1.50;;
41693;SDS011;27377;50.666;9.150;2022-11-15T15:47:37;3.20;;;1.60;;
41693;SDS011;27377;50.666;9.150;2022-11-15T15:50:04;3.70;;;1.50;;
41693;SDS011;27377;50.666;9.150;2022-11-15T15:52:42;4.65;;;1.60;;
41693;SDS011;27377;50.666;9.150;2022-11-15T15:55:08;3.03;;;1.53;;
41693;SDS011;27377;50.666;9.150;2022-11-15T15:57:35;3.00;;;1.58;;
41693;SDS011;27377;50.666;9.150;2022-11-15T16:00:00;5.10;;;1.80;;
41693;SDS011;27377;50.666;9.150;2022-11-15T16:02:27;3.47;;;1.70;;
41693;SDS011;27377;50.666;9.150;2022-11-15T16:04:53;4.27;;;1.70;;
41693;SDS011;27377;50.666;9.150;2022-11-15T16:07:20;4.63;;;1.90;;
41693;SDS011;27377;50.666;9.150;2022-11-15T16:09:48;3.83;;;1.73;;
41693;SDS011;27377;50.666;9.150;2022-11-15T16:12:32;3.85;;;1.90;;
41693;SDS011;27377;50.666;9.150;2022-11-15T16:14:59;4.43;;;1.90;;
41693;SDS011;27377;50.666;9.150;2022-11-15T16:17:26;4.80;;;1.90;;
41693;SDS011;27377;50.666;9.150;2022-11-15T16:19:56;4.80;;;2.05;;
41693;SDS011;27377;50.666;9.150;2022-11-15T16:22:22;5.67;;;2.10;;
41693;SDS011;27377;50.666;9.150;2022-11-15T16:24:48;4.33;;;2.10;;
41693;SDS011;27377;50.666;9.150;2022-11-15T16:27:14;6.87;;;2.13;;
41693;SDS011;27377;50.666;9.150;2022-11-15T16:29:42;4.93;;;2.20;;
41693;SDS011;27377;50.666;9.150;2022-11-15T16:32:08;4.47;;;2.30;;
41693;SDS011;27377;50.666;9.150;2022-11-15T16:34:34;4.93;;;2.30;;
41693;SDS011;27377;50.666;9.150;2022-11-15T16:36:59;5.95;;;2.35;;
41693;SDS011;27377;50.666;9.150;2022-11-15T16:39:25;4.97;;;2.20;;
41693;SDS011;27377;50.666;9.150;2022-11-15T16:41:52;4.55;;;2.50;;
41693;SDS011;27377;50.666;9.150;2022-11-15T16:44:18;5.32;;;2.35;;
41693;SDS011;27377;50.666;9.150;2022-11-15T16:46:43;6.18;;;2.60;;
41693;SDS011;27377;50.666;9.150;2022-11-15T16:49:15;5.18;;;2.55;;
41693;SDS011;27377;50.666;9.150;2022-11-15T16:51:42;5.10;;;2.60;;